Orbital elements of FENGYUN 1C DEB
| Launched | 9 May 1999 |
| Flight ended | – |
| Launch site | Taiyuan Space Center, PRC |
| Owner | People's Republic of China |
| NORAD ID | 30092 |
| Date fetched |
Epoch osculation |
Inc. [°] |
Ecc. | RA asc node [hr] |
Arg Peri. [°] |
Mean anom [°] |
Mean motion [rev/day] |
Abs. mag |
| Date fetched |
Epoch osculation |
Inc. [°] |
Ecc. | RA asc node [hr] |
Arg Peri. [°] |
Mean anom [°] |
Mean motion [rev/day] |
Abs. mag |
| 2026 May 03 17:57 | 2026 Apr 30 11:53:29 | 98.9285 | 0.00822 | 20.6984 | 199.7511 | 215.3791 | 14.39616 | – |
| 2026 May 02 17:57 | 2026 Apr 30 11:53:29 | 98.9285 | 0.00822 | 20.6984 | 199.7511 | 215.3791 | 14.39616 | – |
| 2026 May 01 17:56 | 2026 Apr 30 11:53:29 | 98.9285 | 0.00822 | 20.6984 | 199.7511 | 215.3791 | 14.39616 | – |
| 2026 Apr 30 17:56 | 2026 Apr 30 11:53:29 | 98.9285 | 0.00822 | 20.6984 | 199.7511 | 215.3791 | 14.39616 | – |
| 2026 Apr 29 17:57 | 2026 Apr 24 12:28:07 | 98.9291 | 0.00820 | 20.2834 | 217.5400 | 215.3791 | 14.39616 | – |
| 2026 Apr 28 17:56 | 2026 Apr 24 12:28:07 | 98.9291 | 0.00820 | 20.2834 | 217.5400 | 215.3791 | 14.39616 | – |
| 2026 Apr 27 17:58 | 2026 Apr 24 12:28:07 | 98.9291 | 0.00820 | 20.2834 | 217.5400 | 215.3791 | 14.39616 | – |
| 2026 Apr 26 17:58 | 2026 Apr 24 12:28:07 | 98.9291 | 0.00820 | 20.2834 | 217.5400 | 215.3791 | 14.39616 | – |
| 2026 Apr 25 17:58 | 2026 Apr 24 12:28:07 | 98.9291 | 0.00820 | 20.2834 | 217.5400 | 215.3791 | 14.39616 | – |
| 2026 Apr 24 17:59 | 2026 Apr 24 12:28:07 | 98.9291 | 0.00820 | 20.2834 | 217.5400 | 215.3791 | 14.39616 | – |
| 2026 Apr 23 17:57 | 2026 Apr 19 12:20:11 | 98.9289 | 0.00818 | 19.9358 | 232.4676 | 215.3791 | 14.39616 | – |
| 2026 Apr 22 17:57 | 2026 Apr 19 12:20:11 | 98.9289 | 0.00818 | 19.9358 | 232.4676 | 215.3791 | 14.39616 | – |
| 2026 Apr 21 17:57 | 2026 Apr 19 12:20:11 | 98.9289 | 0.00818 | 19.9358 | 232.4676 | 215.3791 | 14.39616 | – |
| 2026 Apr 20 17:57 | 2026 Apr 19 12:20:11 | 98.9289 | 0.00818 | 19.9358 | 232.4676 | 215.3791 | 14.39616 | – |
| 2026 Apr 19 17:58 | 2026 Apr 19 12:20:11 | 98.9289 | 0.00818 | 19.9358 | 232.4676 | 215.3791 | 14.39616 | – |
| 2026 Apr 18 17:56 | 2026 Apr 13 00:02:04 | 98.9295 | 0.00816 | 19.4835 | 251.9532 | 215.3791 | 14.39616 | – |
| 2026 Apr 16 17:57 | 2026 Apr 13 00:02:04 | 98.9295 | 0.00816 | 19.4835 | 251.9532 | 215.3791 | 14.39616 | – |
| 2026 Apr 14 17:57 | 2026 Apr 13 00:02:04 | 98.9295 | 0.00816 | 19.4835 | 251.9532 | 215.3791 | 14.39616 | – |
| 2026 Apr 13 17:57 | 2026 Apr 13 00:02:04 | 98.9295 | 0.00816 | 19.4835 | 251.9532 | 215.3791 | 14.39616 | – |
| 2026 Apr 12 17:57 | 2026 Apr 08 11:07:17 | 98.9293 | 0.00816 | 19.1683 | 265.5468 | 215.3791 | 14.39616 | – |
| 2026 Apr 11 17:57 | 2026 Apr 08 11:07:17 | 98.9293 | 0.00816 | 19.1683 | 265.5468 | 215.3791 | 14.39616 | – |
| 2026 Apr 10 17:58 | 2026 Apr 08 11:07:17 | 98.9293 | 0.00816 | 19.1683 | 265.5468 | 215.3791 | 14.39616 | – |
| 2026 Apr 09 18:01 | 2026 Apr 08 11:07:17 | 98.9293 | 0.00816 | 19.1683 | 265.5468 | 215.3791 | 14.39616 | – |
| 2026 Apr 08 17:57 | 2026 Apr 08 11:07:17 | 98.9293 | 0.00816 | 19.1683 | 265.5468 | 215.3791 | 14.39616 | – |
| 2026 Apr 07 17:57 | 2026 Apr 02 01:59:03 | 98.9292 | 0.00817 | 18.7252 | 284.6634 | 215.3791 | 14.39616 | – |
| 2026 Apr 06 17:57 | 2026 Apr 02 01:59:03 | 98.9292 | 0.00817 | 18.7252 | 284.6634 | 215.3791 | 14.39616 | – |